Time;durP1;ratioP1;P1;durP2;ratioP2;P2;SDS_P1;SDS_P2;PMS_P1;PMS_P2;Temp;Humidity;BMP_temperature;BMP_pressure;BME280_temperature;BME280_humidity;BME280_pressure;Samples;Min_cycle;Max_cycle;Signal;HPM_P1;HPM_P2
2022/12/14 00:01:40;;;;;;;16.17;8.43;;;-2.50;99.90;;;-3.70;100.00;96249.78;4995565;28;20680;-71
2022/12/14 00:04:10;;;;;;;17.15;8.07;;;-2.50;99.90;;;-3.67;100.00;96238.78;4997768;28;20050;-72
2022/12/14 00:06:37;;;;;;;14.13;7.88;;;-2.50;99.90;;;-3.81;100.00;96237.22;4998441;28;20057;-71
2022/12/14 00:09:04;;;;;;;15.27;8.48;;;-2.50;99.90;;;-3.74;100.00;96242.22;4998675;28;20057;-71
2022/12/14 00:11:33;;;;;;;14.52;8.18;;;-2.40;99.90;;;-3.61;100.00;96249.72;4997631;28;21014;-72
2022/12/14 00:14:02;;;;;;;17.77;9.30;;;-2.40;99.90;;;-3.81;100.00;96237.22;4998955;28;20069;-71
2022/12/14 00:16:32;;;;;;;14.98;8.00;;;-2.50;99.90;;;-3.66;100.00;96223.56;4997870;28;20045;-72
2022/12/14 00:19:00;;;;;;;16.67;8.75;;;-2.40;99.90;;;-3.74;100.00;96227.88;5026526;28;20046;-71
2022/12/14 00:21:27;;;;;;;15.85;8.68;;;-2.40;99.90;;;-3.74;100.00;96211.78;4999141;28;20791;-71
2022/12/14 00:23:57;;;;;;;16.00;9.23;;;-2.40;99.90;;;-3.70;100.00;96214.28;4995746;28;20045;-72
2022/12/14 00:26:32;;;;;;;14.30;7.85;;;-2.40;99.90;;;-3.65;100.00;96215.13;4997100;28;20072;-72
2022/12/14 00:29:01;;;;;;;17.73;8.38;;;-2.50;99.90;;;-3.58;100.00;96209.13;4999061;28;20054;-72
2022/12/14 00:31:28;;;;;;;14.93;7.78;;;-2.30;99.90;;;-3.42;100.00;96202.22;4996533;28;20431;-72
2022/12/14 00:33:55;;;;;;;14.48;7.70;;;-2.30;99.90;;;-3.48;100.00;96196.38;4994751;28;20077;-72
2022/12/14 00:36:23;;;;;;;14.18;7.70;;;-2.30;99.90;;;-3.55;100.00;96194.75;4996023;28;20378;-72
2022/12/14 00:38:50;;;;;;;16.35;8.95;;;-2.30;99.90;;;-3.57;100.00;96190.50;4995868;28;20056;-72
2022/12/14 00:41:17;;;;;;;14.18;7.70;;;-2.20;99.90;;;-3.63;100.00;96188.03;4996489;28;20050;-71
2022/12/14 00:43:44;;;;;;;14.32;8.13;;;-2.20;99.90;;;-3.44;100.00;96187.88;4995487;28;20525;-71
2022/12/14 00:46:15;;;;;;;18.13;8.73;;;-2.30;99.90;;;-3.54;100.00;96183.72;5012353;28;20489;-72
2022/12/14 00:48:43;;;;;;;16.58;8.43;;;-2.30;99.90;;;-3.55;100.00;96187.97;4997898;28;20056;-72
2022/12/14 00:51:10;;;;;;;17.23;9.05;;;-2.40;99.90;;;-3.48;100.00;96192.13;4996511;28;20164;-72
2022/12/14 00:53:36;;;;;;;16.27;7.80;;;-2.30;99.90;;;-3.53;100.00;96182.88;5003654;28;20049;-72
2022/12/14 00:56:06;;;;;;;13.55;8.02;;;-2.20;99.90;;;-3.45;100.00;96187.00;5003612;28;20081;-72
2022/12/14 00:58:33;;;;;;;15.48;8.57;;;-2.20;99.90;;;-3.55;100.00;96195.56;5004212;28;20118;-71
2022/12/14 01:01:03;;;;;;;17.67;8.93;;;-2.20;99.90;;;-3.39;100.00;96202.19;5004354;28;20045;-73
2022/12/14 01:03:31;;;;;;;14.40;8.77;;;-2.30;99.90;;;-3.43;100.00;96197.16;5003929;28;20129;-72
2022/12/14 01:05:59;;;;;;;16.75;8.57;;;-2.30;99.90;;;-3.32;100.00;96192.81;5002711;28;20187;-72
2022/12/14 01:08:33;;;;;;;17.08;8.68;;;-2.20;99.90;;;-3.34;100.00;96188.59;5003793;28;20065;-72
2022/12/14 01:11:08;;;;;;;14.50;8.18;;;-2.10;99.90;;;-3.38;100.00;96185.25;5004124;28;20054;-72
2022/12/14 01:13:36;;;;;;;18.40;8.90;;;-2.20;99.90;;;-3.30;100.00;96187.72;5033327;28;20099;-71
2022/12/14 01:16:13;;;;;;;13.85;7.78;;;-2.20;99.90;;;-3.43;100.00;96190.38;5003230;28;20049;-71
2022/12/14 01:18:42;;;;;;;13.93;8.15;;;-2.20;99.90;;;-3.32;100.00;96195.34;5001068;28;20094;-72
2022/12/14 01:21:22;;;;;;;18.35;8.93;;;-2.20;99.90;;;-3.31;100.00;96191.94;5003715;28;20054;-71
2022/12/14 01:23:56;;;;;;;12.82;7.57;;;-2.10;99.90;;;-3.22;100.00;96175.78;4996545;28;20049;-72
2022/12/14 01:26:25;;;;;;;17.23;8.90;;;-2.10;99.90;;;-3.32;100.00;96177.59;5002565;28;20045;-72
2022/12/14 01:28:56;;;;;;;16.02;8.95;;;-2.10;99.90;;;-3.17;100.00;96168.94;5002850;28;20053;-71
2022/12/14 01:31:29;;;;;;;14.70;7.55;;;-2.10;99.90;;;-3.46;100.00;96177.72;5013632;28;20056;-71
2022/12/14 01:33:56;;;;;;;16.27;9.05;;;-2.00;99.90;;;-3.38;100.00;96175.09;5000423;28;20050;-71
2022/12/14 01:36:27;;;;;;;13.13;7.70;;;-2.10;99.90;;;-3.31;100.00;96174.19;5001908;28;20053;-71
2022/12/14 01:38:58;;;;;;;13.80;7.72;;;-2.10;99.90;;;-3.41;100.00;96170.06;4995852;28;20035;-72
2022/12/14 01:41:30;;;;;;;18.02;8.73;;;-2.10;99.90;;;-3.48;100.00;96168.47;5001370;28;20065;-71
2022/12/14 01:44:09;;;;;;;15.63;8.50;;;-2.10;99.90;;;-3.37;100.00;96164.13;4999506;28;20528;-71
2022/12/14 01:47:46;;;;;;;14.38;8.35;;;-2.10;99.90;;;-3.37;100.00;96157.34;4999001;28;20114;-72
2022/12/14 01:50:28;;;;;;;12.50;7.47;;;-2.10;99.90;;;-3.27;100.00;96165.69;4936978;28;20050;-72
2022/12/14 01:53:18;;;;;;;14.82;7.95;;;-2.10;99.90;;;-3.25;100.00;96166.50;4940132;29;20479;-71
2022/12/14 01:55:51;;;;;;;14.05;7.97;;;-2.00;99.90;;;-3.38;100.00;96165.78;4998670;28;20046;-71
2022/12/14 01:58:22;;;;;;;12.65;7.78;;;-2.00;99.90;;;-3.47;100.00;96165.06;5003492;28;20042;-72
2022/12/14 02:00:53;;;;;;;17.80;8.52;;;-2.10;99.90;;;-3.42;100.00;96165.84;5001836;28;20072;-71
2022/12/14 02:03:26;;;;;;;17.15;8.95;;;-2.20;99.90;;;-3.28;100.00;96158.09;5002290;28;20052;-71
2022/12/14 02:06:01;;;;;;;11.40;6.95;;;-2.10;99.90;;;-3.22;100.00;96163.09;5000561;28;20137;-71
2022/12/14 02:08:29;;;;;;;13.23;7.07;;;-2.00;99.90;;;-3.15;100.00;96169.78;5005066;28;20061;-72
2022/12/14 02:10:56;;;;;;;14.57;7.60;;;-2.00;99.90;;;-3.14;100.00;96168.94;5001043;28;20148;-71
2022/12/14 02:13:42;;;;;;;15.20;8.35;;;-2.00;99.90;;;-3.33;100.00;96167.44;5001464;28;20392;-71
2022/12/14 02:16:09;;;;;;;14.70;8.48;;;-2.00;99.90;;;-3.33;100.00;96170.84;5001039;28;20080;-71
2022/12/14 02:18:36;;;;;;;13.30;7.53;;;-2.10;99.90;;;-3.33;100.00;96165.78;5001875;28;20072;-71
2022/12/14 02:21:23;;;;;;;16.77;7.95;;;-2.10;99.90;;;-3.19;100.00;96176.59;5000367;28;20057;-70
2022/12/14 02:24:10;;;;;;;15.82;8.90;;;-2.00;99.90;;;-3.31;100.00;96176.72;5001536;28;20080;-71
2022/12/14 02:26:59;;;;;;;16.33;8.10;;;-2.10;99.90;;;-3.40;100.00;96159.06;4998491;28;20069;-72
2022/12/14 02:29:48;;;;;;;15.63;8.25;;;-2.10;99.90;;;-3.36;100.00;96153.09;5001227;28;20045;-72
2022/12/14 02:32:51;;;;;;;15.15;8.50;;;-2.10;99.90;;;-3.39;100.00;96141.28;5000826;28;20046;-71
2022/12/14 02:35:36;;;;;;;15.57;9.07;;;-2.10;99.90;;;-3.40;100.00;96139.63;4981069;28;20053;-71
2022/12/14 02:38:26;;;;;;;14.73;8.23;;;-2.20;99.90;;;-3.51;100.00;96143.09;4998755;28;20057;-71
2022/12/14 02:41:19;;;;;;;14.38;8.23;;;-2.20;99.90;;;-3.22;100.00;96146.16;5001610;28;20045;-71
2022/12/14 02:44:15;;;;;;;11.65;6.80;;;-2.10;99.90;;;-3.23;100.00;96143.66;5002668;28;20056;-71
2022/12/14 02:46:58;;;;;;;13.63;7.35;;;-2.00;99.90;;;-2.99;100.00;96132.34;4997467;28;20057;-72
2022/12/14 02:49:51;;;;;;;13.23;7.22;;;-1.90;99.90;;;-3.12;100.00;96124.06;4998916;28;20048;-72
2022/12/14 02:52:18;;;;;;;13.03;5.73;;;-1.90;99.90;;;-3.05;100.00;96117.22;5002769;28;20046;-72
2022/12/14 02:55:00;;;;;;;17.13;8.80;;;-1.80;99.90;;;-3.07;100.00;96106.25;5003197;28;20057;-71
2022/12/14 02:57:34;;;;;;;14.55;7.45;;;-1.80;99.90;;;-3.11;100.00;96102.06;4998013;28;20050;-72
2022/12/14 03:00:04;;;;;;;17.25;7.85;;;-1.80;99.90;;;-3.21;100.00;96102.19;5000557;28;20042;-71
2022/12/14 03:02:36;;;;;;;16.35;8.57;;;-1.80;99.90;;;-3.23;100.00;96103.91;5003956;28;20037;-71
2022/12/14 03:05:04;;;;;;;15.70;8.65;;;-1.90;99.90;;;-3.19;100.00;96086.94;4999000;28;20081;-72
2022/12/14 03:07:46;;;;;;;14.25;8.50;;;-1.90;99.90;;;-3.07;100.00;96096.09;4999653;28;20516;-72
2022/12/14 03:10:27;;;;;;;16.48;8.40;;;-2.00;99.90;;;-3.08;100.00;96094.41;4999414;28;20045;-72
2022/12/14 03:13:14;;;;;;;14.13;8.27;;;-1.90;99.90;;;-3.21;100.00;96088.66;5003708;28;20057;-72
2022/12/14 03:15:46;;;;;;;13.73;8.27;;;-1.90;99.90;;;-3.20;100.00;96093.69;5032518;28;20717;-72
2022/12/14 03:18:17;;;;;;;16.27;8.10;;;-1.80;99.90;;;-3.24;100.00;96097.16;4997589;28;20042;-72
2022/12/14 03:20:48;;;;;;;14.98;7.82;;;-2.00;99.90;;;-3.05;100.00;96105.38;5001175;28;20061;-73
2022/12/14 03:23:21;;;;;;;14.10;7.70;;;-1.90;99.90;;;-3.00;100.00;96105.31;5003736;28;20053;-72
2022/12/14 03:26:04;;;;;;;13.13;7.40;;;-1.90;99.90;;;-2.93;100.00;96099.28;4997918;28;20379;-72
2022/12/14 03:28:47;;;;;;;14.23;7.90;;;-1.80;99.90;;;-2.85;100.00;96101.72;4999894;28;20054;-72
2022/12/14 03:31:39;;;;;;;16.13;8.70;;;-1.80;99.90;;;-2.96;100.00;96105.25;5000754;28;20049;-73
2022/12/14 03:34:12;;;;;;;14.60;7.80;;;-1.70;99.90;;;-2.86;100.00;96107.66;4993367;28;20050;-72
2022/12/14 03:37:05;;;;;;;14.32;7.85;;;-1.80;99.90;;;-3.13;100.00;96098.69;4997191;28;20058;-72
2022/12/14 03:39:34;;;;;;;19.13;8.88;;;-1.80;99.90;;;-3.05;100.00;96102.81;5013976;28;20512;-72
2022/12/14 03:42:25;;;;;;;17.85;8.13;;;-1.90;99.90;;;-3.10;100.00;96098.66;4993688;28;20422;-72
2022/12/14 03:45:21;;;;;;;13.90;7.35;;;-1.90;99.90;;;-3.08;100.00;96092.72;4999896;28;20050;-72
2022/12/14 03:48:14;;;;;;;13.90;8.00;;;-1.80;99.90;;;-2.90;100.00;96095.84;5001548;28;20057;-72
2022/12/14 03:51:06;;;;;;;16.70;8.70;;;-1.80;99.90;;;-3.03;100.00;96080.81;5000584;28;20516;-72
2022/12/14 03:54:07;;;;;;;17.35;8.77;;;-1.80;99.90;;;-3.13;100.00;96078.41;5002712;28;20073;-72
2022/12/14 03:56:56;;;;;;;17.00;8.88;;;-1.80;99.90;;;-3.17;100.00;96080.13;4999142;28;20420;-72
2022/12/14 03:59:38;;;;;;;14.77;7.85;;;-1.80;99.90;;;-2.92;100.00;96077.25;4997786;28;20407;-72
2022/12/14 04:02:15;;;;;;;13.25;7.57;;;-1.80;99.90;;;-2.96;100.00;96069.69;5001182;28;20049;-72
2022/12/14 04:04:55;;;;;;;15.60;8.25;;;-1.70;99.90;;;-2.89;100.00;96060.31;5003467;28;20068;-72
2022/12/14 04:07:43;;;;;;;14.90;7.65;;;-1.70;99.90;;;-2.76;100.00;96053.31;5006302;28;20045;-72
2022/12/14 04:18:55;;;;;;;17.65;8.55;;;-1.80;99.90;;;-3.22;100.00;96059.06;5002417;28;20082;-72
2022/12/14 04:21:48;;;;;;;17.42;8.95;;;-1.90;99.90;;;-3.08;100.00;96062.28;5005170;28;20049;-72
2022/12/14 04:27:43;;;;;;;16.40;9.00;;;-2.00;99.90;;;-3.33;100.00;96061.75;5004538;28;20068;-72
2022/12/14 04:30:12;;;;;;;16.15;8.73;;;-2.00;99.90;;;-3.25;100.00;96074.31;5002400;28;20058;-72
2022/12/14 04:32:48;;;;;;;15.57;8.98;;;-2.00;99.90;;;-3.24;100.00;96069.25;5004481;28;20065;-72
2022/12/14 04:35:31;;;;;;;14.25;8.02;;;-2.00;99.90;;;-3.09;100.00;96059.75;4986218;28;20124;-73
2022/12/14 04:38:27;;;;;;;19.75;9.73;;;-1.90;99.90;;;-3.29;100.00;96037.97;5003088;28;20057;-72
2022/12/14 04:40:59;;;;;;;15.63;8.23;;;-2.00;99.90;;;-3.35;100.00;96040.63;4999154;28;20050;-72
2022/12/14 04:43:34;;;;;;;17.65;9.45;;;-2.00;99.90;;;-3.24;100.00;96036.25;5005351;28;20068;-72
2022/12/14 04:46:11;;;;;;;16.65;9.73;;;-2.00;99.90;;;-3.28;100.00;96028.69;5002742;28;20050;-72
2022/12/14 04:49:00;;;;;;;22.58;9.63;;;-2.00;99.90;;;-3.32;100.00;96032.97;4984217;28;20401;-72
2022/12/14 04:52:06;;;;;;;14.18;7.80;;;-2.10;99.90;;;-3.13;100.00;96042.88;5003297;28;20160;-73
2022/12/14 04:54:48;;;;;;;17.02;8.43;;;-2.00;99.90;;;-3.17;100.00;96045.47;5005257;28;20057;-73
2022/12/14 04:57:41;;;;;;;14.07;8.32;;;-1.90;99.90;;;-3.17;100.00;96039.50;5016683;28;20053;-72
2022/12/14 05:00:09;;;;;;;14.27;8.02;;;-1.90;99.90;;;-3.07;100.00;96047.88;5000910;28;20071;-72
2022/12/14 05:03:14;;;;;;;16.23;9.65;;;-1.90;99.90;;;-3.16;100.00;96042.03;5003462;28;20054;-73
2022/12/14 05:06:20;;;;;;;16.23;9.10;;;-1.90;99.90;;;-3.35;100.00;96030.47;5003499;28;20188;-72
2022/12/14 05:09:09;;;;;;;18.35;9.77;;;-2.00;99.90;;;-3.42;100.00;96033.94;5001944;28;20149;-72
2022/12/14 05:11:46;;;;;;;17.02;9.07;;;-2.10;99.90;;;-3.44;100.00;96046.66;5000435;28;20061;-72
2022/12/14 05:14:41;;;;;;;14.68;5.93;;;-2.10;99.90;;;-3.52;100.00;96057.72;5001562;28;20053;-72
2022/12/14 05:17:08;;;;;;;13.50;8.57;;;-2.10;99.90;;;-3.40;100.00;96044.91;5001648;28;20053;-72
2022/12/14 05:19:36;;;;;;;16.50;9.25;;;-2.10;99.90;;;-3.34;100.00;96046.53;5001058;28;20046;-73
2022/12/14 05:22:06;;;;;;;18.58;9.20;;;-2.10;99.90;;;-3.36;100.00;96041.47;5019064;28;20054;-72
2022/12/14 05:24:34;;;;;;;16.33;9.45;;;-2.10;99.90;;;-3.42;100.00;96041.53;5003954;28;20050;-72
2022/12/14 05:27:01;;;;;;;18.67;10.18;;;-2.20;99.90;;;-3.47;100.00;96035.69;5001370;28;20056;-72
2022/12/14 05:29:27;;;;;;;20.23;10.13;;;-2.20;99.90;;;-3.43;100.00;96050.84;5002196;28;20487;-72
2022/12/14 05:31:55;;;;;;;14.90;9.15;;;-2.20;99.90;;;-3.31;100.00;96064.25;5001128;28;20064;-72
2022/12/14 05:34:22;;;;;;;20.63;10.57;;;-2.10;99.90;;;-3.41;100.00;96049.13;5002978;28;20053;-72
2022/12/14 05:36:49;;;;;;;18.42;10.45;;;-2.20;99.90;;;-3.45;100.00;96042.41;5000119;28;20057;-72
2022/12/14 05:39:16;;;;;;;18.15;9.52;;;-2.20;99.90;;;-3.53;100.00;96033.25;5003278;28;20057;-72
2022/12/14 05:41:43;;;;;;;19.25;10.07;;;-2.30;99.90;;;-3.51;100.00;96036.56;5002270;28;20831;-72
2022/12/14 05:44:10;;;;;;;18.35;9.25;;;-2.20;99.90;;;-3.52;100.00;96018.00;5027619;28;20377;-72
2022/12/14 05:46:37;;;;;;;16.33;10.13;;;-2.30;99.90;;;-3.59;100.00;96003.72;4999475;28;20046;-72
2022/12/14 05:49:03;;;;;;;17.23;10.20;;;-2.30;99.90;;;-3.53;100.00;96002.81;4996986;28;20050;-72
2022/12/14 05:51:31;;;;;;;19.08;9.88;;;-2.30;99.90;;;-3.51;100.00;96013.75;4999945;28;20377;-72
2022/12/14 05:53:57;;;;;;;17.38;10.68;;;-2.30;99.90;;;-3.49;100.00;96004.44;5004767;28;20132;-72
2022/12/14 05:56:25;;;;;;;21.35;11.60;;;-2.30;99.90;;;-3.60;100.00;95999.50;5002762;28;20482;-72
2022/12/14 05:58:52;;;;;;;20.23;10.80;;;-2.40;99.90;;;-3.60;100.00;95990.19;4999299;28;20053;-72
2022/12/14 06:01:19;;;;;;;18.33;10.85;;;-2.40;99.90;;;-3.60;100.00;95982.59;5002732;28;20054;-72
2022/12/14 06:03:46;;;;;;;20.27;11.98;;;-2.40;99.90;;;-3.65;100.00;95969.13;4999591;28;20085;-72
2022/12/14 06:06:14;;;;;;;21.77;11.70;;;-2.40;99.90;;;-3.60;100.00;95959.75;5001744;28;20391;-72
2022/12/14 06:08:44;;;;;;;21.50;11.95;;;-2.40;99.90;;;-3.71;100.00;95943.03;5001522;28;20046;-72
2022/12/14 06:11:21;;;;;;;22.98;11.20;;;-2.40;99.90;;;-3.67;100.00;95945.50;5002471;28;20045;-72
2022/12/14 06:13:48;;;;;;;20.13;9.70;;;-2.40;99.90;;;-3.63;100.00;95956.41;5001262;28;20064;-71
2022/12/14 06:16:19;;;;;;;17.40;9.32;;;-2.40;99.90;;;-3.69;100.00;95944.66;5001662;28;20045;-72
2022/12/14 06:18:50;;;;;;;17.80;10.05;;;-2.40;99.90;;;-3.40;100.00;95948.50;4993946;28;20069;-72
2022/12/14 06:21:19;;;;;;;18.38;10.77;;;-2.30;99.90;;;-3.38;100.00;95952.69;5031279;28;20062;-72
2022/12/14 06:23:47;;;;;;;18.45;11.13;;;-2.20;99.90;;;-3.32;100.00;95951.78;5003943;28;20212;-72
2022/12/14 06:26:15;;;;;;;18.85;10.10;;;-2.10;99.90;;;-3.27;100.00;95949.16;5002183;28;20061;-72
2022/12/14 06:28:42;;;;;;;19.00;10.90;;;-2.10;99.90;;;-3.16;100.00;95939.69;5001602;28;20056;-72
2022/12/14 06:31:16;;;;;;;18.30;10.93;;;-2.10;99.90;;;-3.25;100.00;95950.81;5004220;28;20049;-72
2022/12/14 06:33:44;;;;;;;17.63;10.77;;;-2.10;99.90;;;-3.19;100.00;95960.88;5003980;28;20064;-72
2022/12/14 06:36:22;;;;;;;19.60;10.90;;;-2.00;99.90;;;-3.28;100.00;95962.72;4995999;28;20543;-72
2022/12/14 06:39:03;;;;;;;19.13;10.50;;;-1.90;99.90;;;-3.33;100.00;95962.78;5015698;28;20062;-72
2022/12/14 06:41:30;;;;;;;18.42;10.07;;;-2.00;99.90;;;-3.19;100.00;95958.34;5001179;28;20065;-73
2022/12/14 06:44:05;;;;;;;18.20;9.85;;;-1.90;99.90;;;-3.30;100.00;95955.13;5018793;28;20935;-72
2022/12/14 06:46:34;;;;;;;16.77;9.82;;;-1.90;99.90;;;-2.98;100.00;95956.34;5001043;28;20163;-72
2022/12/14 06:49:03;;;;;;;18.85;9.45;;;-1.90;99.90;;;-2.95;100.00;95949.50;4999399;28;20057;-72
2022/12/14 06:51:29;;;;;;;16.02;9.77;;;-1.80;99.90;;;-2.72;100.00;95950.84;5003757;28;20053;-73
2022/12/14 06:53:57;;;;;;;19.02;11.98;;;-1.70;99.90;;;-2.99;100.00;95944.50;5006938;28;22101;-72
2022/12/14 06:56:26;;;;;;;17.67;9.93;;;-1.80;99.90;;;-2.83;100.00;95942.56;5006901;28;20054;-72
2022/12/14 06:58:54;;;;;;;17.77;10.15;;;-1.70;99.90;;;-3.03;100.00;95925.97;5005694;28;20213;-72
2022/12/14 07:01:24;;;;;;;18.60;10.73;;;-1.80;99.90;;;-3.21;100.00;95937.22;5007379;28;20080;-72
2022/12/14 07:03:55;;;;;;;16.13;10.30;;;-1.80;99.90;;;-3.17;100.00;95925.31;4999215;28;20140;-72
2022/12/14 07:06:26;;;;;;;18.20;9.98;;;-1.80;99.90;;;-3.20;100.00;95938.06;5007883;28;20076;-72
2022/12/14 07:08:55;;;;;;;19.25;11.25;;;-1.90;99.90;;;-3.12;100.00;95933.72;5030884;28;20753;-71
2022/12/14 07:11:24;;;;;;;17.98;9.95;;;-1.90;99.90;;;-2.97;100.00;95940.25;5004892;28;20053;-72
2022/12/14 07:13:53;;;;;;;17.30;9.88;;;-1.80;99.90;;;-2.85;100.00;95952.75;5002734;28;20542;-72
2022/12/14 07:16:26;;;;;;;17.33;9.70;;;-1.80;99.90;;;-2.91;100.00;95957.94;4998117;28;20587;-72
2022/12/14 07:18:54;;;;;;;17.05;10.48;;;-1.70;99.90;;;-3.09;100.00;95950.59;4999955;28;20061;-72
2022/12/14 07:21:22;;;;;;;20.10;11.10;;;-1.80;99.90;;;-3.10;100.00;95943.84;5001633;28;20152;-72
2022/12/14 07:23:51;;;;;;;18.92;10.75;;;-1.80;99.90;;;-3.07;100.00;95944.63;5000387;28;20049;-72
2022/12/14 07:26:25;;;;;;;24.35;13.77;;;-1.80;99.90;;;-3.19;100.00;95935.50;5001364;28;20512;-72
2022/12/14 07:28:53;;;;;;;18.90;10.98;;;-2.00;99.90;;;-3.18;100.00;95939.72;5013563;28;20064;-72
2022/12/14 07:31:25;;;;;;;17.48;10.75;;;-2.00;99.90;;;-3.43;100.00;95934.16;5003440;28;20061;-72
2022/12/14 07:33:55;;;;;;;17.17;9.93;;;-1.90;99.90;;;-3.32;100.00;95941.63;5016225;28;20116;-72
2022/12/14 07:36:24;;;;;;;24.30;13.10;;;-1.90;99.90;;;-3.46;100.00;95958.75;5002952;28;20057;-72
2022/12/14 07:38:52;;;;;;;18.95;11.57;;;-2.00;99.90;;;-3.47;100.00;95959.59;5002970;28;20435;-72
2022/12/14 07:41:30;;;;;;;21.15;12.05;;;-2.10;99.90;;;-3.33;100.00;95952.66;5006922;28;20420;-72
2022/12/14 07:44:00;;;;;;;18.77;10.43;;;-2.00;99.90;;;-3.40;100.00;95959.50;5006348;28;20120;-72
2022/12/14 07:46:30;;;;;;;25.65;14.93;;;-2.00;99.90;;;-3.44;100.00;95959.56;5008971;28;20101;-72
2022/12/14 07:48:59;;;;;;;19.73;11.60;;;-2.00;99.90;;;-3.61;100.00;95973.28;5007402;28;20056;-72
2022/12/14 07:51:34;;;;;;;24.75;12.98;;;-2.10;99.90;;;-3.49;100.00;95989.22;5007668;28;20587;-72
2022/12/14 07:54:04;;;;;;;18.85;11.82;;;-2.10;99.90;;;-3.46;100.00;95987.47;5002316;28;20153;-72
2022/12/14 07:56:35;;;;;;;22.50;12.68;;;-2.10;99.90;;;-3.43;100.00;95982.34;5007475;28;20050;-72
2022/12/14 07:59:07;;;;;;;20.33;11.73;;;-2.10;99.90;;;-3.55;100.00;95987.59;5004859;28;20052;-72
2022/12/14 08:01:36;;;;;;;21.00;11.13;;;-2.10;99.90;;;-3.61;100.00;95982.59;5004993;28;20046;-72
2022/12/14 08:04:14;;;;;;;18.05;11.70;;;-2.10;99.90;;;-3.45;100.00;95986.59;5006036;28;20046;-72
2022/12/14 08:06:41;;;;;;;21.35;12.70;;;-2.10;99.90;;;-3.40;100.00;95969.66;5006116;28;20112;-72
2022/12/14 08:09:10;;;;;;;25.25;14.40;;;-2.20;99.90;;;-3.24;100.00;95980.44;5005957;28;20046;-73
2022/12/14 08:11:38;;;;;;;20.67;11.50;;;-2.10;99.90;;;-3.37;100.00;95986.53;5002972;28;20057;-71
2022/12/14 08:14:11;;;;;;;20.75;12.35;;;-2.10;99.90;;;-3.48;100.00;95985.81;5006485;28;20050;-72
2022/12/14 08:16:38;;;;;;;;;;;-2.00;99.90;;;-3.53;100.00;95988.44;5000811;28;20503;-72
2022/12/14 08:19:05;;;;;;;41.30;22.45;;;-2.10;99.90;;;-3.41;100.00;95983.19;5003978;28;19925;-73
2022/12/14 08:21:32;;;;;;;24.45;14.48;;;-2.00;99.90;;;-3.49;100.00;95979.06;5004373;28;20060;-72
2022/12/14 08:23:59;;;;;;;25.02;14.20;;;-2.20;99.90;;;-3.68;100.00;95981.84;5002183;28;20050;-72
2022/12/14 08:26:26;;;;;;;42.47;21.48;;;-2.10;99.90;;;-3.47;100.00;95974.81;5020214;28;20184;-72
2022/12/14 08:29:02;;;;;;;29.90;18.00;;;-2.20;99.90;;;-3.64;100.00;95975.03;5004629;28;20108;-72
2022/12/14 08:31:29;;;;;;;25.55;16.33;;;-2.10;99.90;;;-3.60;100.00;95974.16;5008545;28;20064;-72
2022/12/14 08:34:01;;;;;;;30.58;17.13;;;-2.10;99.90;;;-3.53;100.00;95979.97;5006381;28;20077;-72
2022/12/14 08:36:31;;;;;;;32.33;17.23;;;-2.20;99.90;;;-3.61;100.00;95983.44;5005184;28;20053;-72
2022/12/14 08:39:05;;;;;;;31.17;18.38;;;-2.20;99.90;;;-3.61;100.00;95977.53;5002456;28;20049;-72
2022/12/14 08:41:33;;;;;;;28.10;17.10;;;-2.20;99.90;;;-3.60;100.00;95979.22;5005355;28;20049;-72
2022/12/14 08:44:02;;;;;;;30.90;17.77;;;-2.20;99.90;;;-3.61;100.00;95988.50;5036489;28;20634;-72
2022/12/14 08:46:32;;;;;;;37.90;19.38;;;-2.20;99.90;;;-3.52;100.00;95992.63;5020795;28;20052;-72
2022/12/14 08:48:59;;;;;;;25.95;15.95;;;-2.20;99.90;;;-3.54;100.00;95999.41;5004358;28;20058;-72
2022/12/14 08:51:27;;;;;;;28.85;17.92;;;-2.20;99.90;;;-3.59;100.00;95993.56;5002371;28;20080;-72
2022/12/14 08:53:55;;;;;;;31.80;17.38;;;-2.10;99.90;;;-3.55;100.00;95989.31;5006067;28;20056;-72
2022/12/14 08:56:26;;;;;;;31.40;19.48;;;-2.10;99.90;;;-3.54;100.00;95999.41;5000534;28;20049;-72
2022/12/14 08:58:53;;;;;;;28.20;17.42;;;-2.20;99.90;;;-3.50;100.00;96005.28;5006173;28;20360;-72
2022/12/14 09:01:26;;;;;;;39.88;21.10;;;-2.10;99.90;;;-3.59;100.00;96006.25;5021199;28;20501;-72
2022/12/14 09:04:07;;;;;;;35.85;22.23;;;-2.20;99.90;;;-3.41;100.00;96007.72;5002692;28;20050;-72
2022/12/14 09:06:37;;;;;;;27.67;16.63;;;-2.20;99.90;;;-3.36;100.00;96004.25;4999705;28;20069;-72
2022/12/14 09:09:06;;;;;;;30.42;17.23;;;-2.10;99.90;;;-3.28;100.00;95998.25;5002347;28;20052;-72
2022/12/14 09:11:42;;;;;;;34.20;20.45;;;-1.90;99.90;;;-2.95;100.00;96000.28;5002510;28;20046;-72
2022/12/14 09:14:09;;;;;;;29.50;18.45;;;-1.80;99.90;;;-2.96;100.00;95993.53;5005687;28;20124;-72
2022/12/14 09:16:36;;;;;;;26.17;16.20;;;-1.60;99.90;;;-2.77;100.00;95996.63;5005397;28;20593;-72
2022/12/14 09:19:04;;;;;;;28.17;16.65;;;-1.40;99.90;;;-2.82;100.00;96011.09;5001707;28;20678;-72
2022/12/14 09:21:31;;;;;;;29.83;18.08;;;-1.30;99.90;;;-2.86;100.00;96004.38;5004214;28;20049;-72
2022/12/14 09:23:58;;;;;;;33.05;18.13;;;-1.30;99.90;;;-2.96;100.00;95997.78;5005899;28;20057;-72
2022/12/14 09:26:26;;;;;;;30.33;19.60;;;-1.40;99.90;;;-2.97;100.00;95989.31;5018762;28;20515;-72
2022/12/14 09:28:55;;;;;;;31.73;17.90;;;-1.50;99.90;;;-2.67;100.00;95992.22;5003969;28;20054;-72
2022/12/14 09:31:25;;;;;;;25.35;15.85;;;-1.40;99.90;;;-2.70;100.00;95992.28;5002009;28;20050;-72
2022/12/14 09:33:53;;;;;;;31.38;18.55;;;-1.20;99.90;;;-2.65;100.00;95990.50;5004892;28;20136;-72
2022/12/14 09:36:24;;;;;;;35.10;22.95;;;-1.10;99.90;;;-2.80;100.00;95989.06;5018716;28;20058;-72
2022/12/14 09:38:54;;;;;;;29.40;16.73;;;-1.30;99.90;;;-2.72;100.00;95993.19;5005281;28;20085;-72
2022/12/14 09:41:32;;;;;;;28.42;15.85;;;-1.20;99.90;;;-2.90;100.00;95991.75;5003558;28;20544;-72
2022/12/14 09:44:38;;;;;;;32.13;21.92;;;-1.20;99.90;;;-2.77;100.00;95993.25;5002013;28;20050;-72
2022/12/14 09:47:21;;;;;;;37.95;20.80;;;-1.30;99.90;;;-2.74;100.00;95995.75;5003829;28;20503;-72
2022/12/14 09:49:57;;;;;;;32.28;21.17;;;-1.30;99.90;;;-2.69;100.00;96001.59;5002605;28;20058;-72
2022/12/14 09:52:42;;;;;;;32.72;19.55;;;-1.30;99.90;;;-2.72;100.00;96001.63;5001897;28;20054;-72
2022/12/14 09:55:25;;;;;;;29.52;17.45;;;-1.20;99.90;;;-2.72;100.00;96003.34;4995775;28;20077;-72
2022/12/14 09:58:26;;;;;;;32.78;18.88;;;-1.30;99.90;;;-2.82;100.00;96000.13;5000960;28;20050;-72
2022/12/14 10:01:21;;;;;;;34.25;22.38;;;-1.30;99.90;;;-2.89;100.00;96009.53;5032070;28;20062;-73
2022/12/14 10:04:11;;;;;;;32.53;20.20;;;-1.40;99.90;;;-3.00;100.00;96008.84;5004494;28;20056;-72
2022/12/14 10:07:15;;;;;;;29.92;18.23;;;-1.60;99.90;;;-3.10;100.00;96012.34;5004700;28;20064;-72
2022/12/14 10:10:23;;;;;;;41.83;23.98;;;-1.60;99.90;;;-3.16;100.00;96008.22;5003674;28;20068;-72
2022/12/14 10:13:02;;;;;;;37.70;21.00;;;-1.80;99.90;;;-3.29;100.00;96012.63;5003153;28;20484;-72
2022/12/14 10:15:41;;;;;;;33.88;20.52;;;-1.80;99.90;;;-3.17;100.00;96017.53;5004104;28;20054;-72
2022/12/14 10:18:19;;;;;;;34.33;20.08;;;-1.80;99.90;;;-3.05;100.00;96024.13;5000890;28;20601;-72
2022/12/14 10:21:14;;;;;;;41.28;24.92;;;-1.70;99.90;;;-3.15;100.00;96022.56;5002558;28;20546;-73
2022/12/14 10:23:58;;;;;;;39.60;24.30;;;-1.80;99.90;;;-3.26;100.00;96029.50;5016710;28;20560;-72
2022/12/14 10:26:37;;;;;;;41.88;24.95;;;-1.80;99.90;;;-3.40;100.00;96043.22;5001340;28;20077;-72
2022/12/14 10:29:38;;;;;;;33.47;19.75;;;-1.90;99.90;;;-3.24;100.00;96051.47;4986294;28;20125;-72
2022/12/14 10:32:21;;;;;;;43.97;24.60;;;-1.80;99.90;;;-3.22;100.00;96057.34;5033068;28;20050;-72
2022/12/14 10:34:48;;;;;;;33.42;20.70;;;-1.80;99.90;;;-3.16;100.00;96049.66;4995706;28;20051;-72
2022/12/14 10:37:35;;;;;;;27.52;17.70;;;-1.80;99.90;;;-2.95;100.00;96033.28;5009084;28;20049;-72
2022/12/14 10:40:08;;;;;;;50.80;30.13;;;-1.70;99.90;;;-3.14;100.00;96034.41;5029553;28;20050;-72
2022/12/14 10:43:14;;;;;;;43.13;24.80;;;-1.80;99.90;;;-3.07;100.00;96048.69;5000016;28;20092;-72
2022/12/14 10:45:56;;;;;;;36.50;22.50;;;-1.70;99.90;;;-3.13;100.00;96045.41;5017345;28;20070;-72
2022/12/14 10:48:48;;;;;;;42.80;20.13;;;-1.70;99.90;;;-2.96;100.00;96048.56;5001642;28;20112;-73